Terminal Aerodrome Forecast
Issued by NWS

Home | Current Version | Previous Version | Text Only | Print | Product List | Glossary On
Versions: 1 2 3 4 5 6 7 8 9 10 11 12 13 14 15 16 17 18 19 20 21 22 23 24 25 26 27 28 29 30 31 32 33 34 35 36 37 38 39 40 41 42
000
FTUS46 KOTX 211007 AAA
TAFCOE
TAF AMD
KCOE 211007Z 2110/2206 21015G21KT P6SM VCSH OVC011 WS020/23043KT
     FM211500 22018G29KT 6SM BR VCSH OVC010
     FM211900 24016G22KT P6SM SCT025 BKN090
     FM212300 24012KT P6SM BKN050 BKN090
      AMD LTD TO CLD AND VIS=

USA.gov is the U.S. government's official web portal to all federal, state and local government web resources and services.